createdAt,value
2019-05-30T06:14:26.216Z,101130.72
2019-05-30T06:15:04.321Z,101125.66
2019-05-30T06:15:42.574Z,101124.11
2019-05-30T06:16:19.911Z,101121.71
2019-05-30T06:16:57.286Z,101124.84
2019-05-30T06:17:34.559Z,101127.12
2019-05-30T06:18:11.433Z,101125.75
2019-05-30T06:18:48.707Z,101112.41
2019-05-30T06:19:27.443Z,101122.54
2019-05-30T06:20:08.244Z,101126.03
2019-05-30T06:20:44.716Z,101120.98
2019-05-30T06:21:21.909Z,101124.70
2019-05-30T06:21:58.669Z,101125.98
2019-05-30T06:22:36.035Z,101127.89
2019-05-30T06:23:13.715Z,101121.66
2019-05-30T06:23:50.551Z,101105.84
2019-05-30T06:24:28.011Z,101123.87
2019-05-30T06:25:06.258Z,101117.59
2019-05-30T06:25:43.022Z,101107.23
2019-05-30T06:26:22.372Z,101121.09
2019-05-30T06:26:59.513Z,101118.80
2019-05-30T06:27:36.583Z,101127.80
2019-05-30T06:28:14.080Z,101123.48
2019-05-30T06:28:51.338Z,101114.12
2019-05-30T06:29:28.413Z,101122.28
2019-05-30T06:30:08.727Z,101125.41
2019-05-30T06:30:46.108Z,101121.84
2019-05-30T06:31:22.984Z,101121.70
2019-05-30T06:32:00.567Z,101123.62
2019-05-30T06:32:38.040Z,101128.19
2019-05-30T06:33:14.707Z,101118.97
2019-05-30T06:33:51.960Z,101119.61
2019-05-30T06:34:38.773Z,101123.95
2019-05-30T06:35:07.813Z,101127.42
2019-05-30T06:35:45.140Z,101120.80
2019-05-30T06:36:23.061Z,101115.81
2019-05-30T06:37:00.057Z,101119.31
2019-05-30T06:37:37.327Z,101121.97
2019-05-30T06:38:14.593Z,101123.47
2019-05-30T06:38:51.275Z,101124.11
2019-05-30T06:39:29.688Z,101125.97
2019-05-30T06:40:07.077Z,101131.27
2019-05-30T06:40:44.259Z,101122.19
2019-05-30T06:41:21.733Z,101129.91
2019-05-30T06:41:59.971Z,101128.34
2019-05-30T06:42:36.699Z,101128.55
2019-05-30T06:43:14.039Z,101133.86
2019-05-30T06:43:51.401Z,101131.47
2019-05-30T06:44:28.301Z,101128.48
2019-05-30T06:45:08.625Z,101134.34
2019-05-30T06:45:45.984Z,101137.62
2019-05-30T06:46:22.741Z,101122.05
2019-05-30T06:46:59.994Z,101136.44
2019-05-30T06:47:38.403Z,101139.12
2019-05-30T06:48:15.101Z,101135.08
2019-05-30T06:48:52.387Z,101135.31
2019-05-30T06:49:31.025Z,101131.30
2019-05-30T06:50:08.281Z,101138.81
2019-05-30T06:50:45.658Z,101140.47
2019-05-30T06:51:24.838Z,101138.66
2019-05-30T06:52:01.676Z,101136.42
2019-05-30T06:52:39.033Z,101139.09
2019-05-30T06:53:16.294Z,101138.51
2019-05-30T06:53:52.979Z,101139.77
2019-05-30T06:54:31.581Z,101127.62
2019-05-30T06:55:09.314Z,101131.71
2019-05-30T06:55:45.991Z,101133.72
2019-05-30T06:56:23.376Z,101136.16
2019-05-30T06:57:00.649Z,101138.41
2019-05-30T06:57:38.477Z,101137.42
2019-05-30T06:58:16.090Z,101138.25
2019-05-30T06:58:53.434Z,101144.74
2019-05-30T06:59:30.194Z,101144.15
2019-05-30T07:00:09.573Z,101140.49
2019-05-30T07:00:46.844Z,101145.18
2019-05-30T07:01:23.762Z,101138.92
2019-05-30T07:02:01.080Z,101143.97
2019-05-30T07:02:38.433Z,101145.62
2019-05-30T07:03:15.120Z,101144.44
2019-05-30T07:03:52.563Z,101143.61
2019-05-30T07:04:48.861Z,101146.05
2019-05-30T07:05:09.579Z,101142.63
2019-05-30T07:05:47.692Z,101146.88
2019-05-30T07:06:27.110Z,101149.32
2019-05-30T07:07:06.070Z,101147.31
2019-05-30T07:07:43.153Z,101143.89
2019-05-30T07:08:20.529Z,101144.48
2019-05-30T07:08:57.201Z,101145.31
2019-05-30T07:09:34.515Z,101144.69
2019-05-30T07:10:11.965Z,101142.91
2019-05-30T07:10:48.851Z,101145.95
2019-05-30T07:11:29.392Z,101142.29
2019-05-30T07:12:06.627Z,101148.58
2019-05-30T07:12:43.307Z,101152.44
2019-05-30T07:13:20.631Z,101149.84
2019-05-30T07:13:57.957Z,101149.22
2019-05-30T07:14:34.744Z,101150.63
2019-05-30T07:15:12.739Z,101152.28
2019-05-30T07:15:50.309Z,101151.69
2019-05-30T07:16:27.386Z,101151.89
2019-05-30T07:17:04.693Z,101146.02
2019-05-30T07:17:41.975Z,101152.72
2019-05-30T07:18:18.651Z,101151.89
2019-05-30T07:18:55.969Z,101159.80
2019-05-30T07:19:33.704Z,101155.55
2019-05-30T07:20:12.025Z,101156.38
2019-05-30T07:20:49.410Z,101152.13
2019-05-30T07:21:27.643Z,101156.58
2019-05-30T07:22:04.327Z,101155.75
2019-05-30T07:22:42.664Z,101153.16
2019-05-30T07:23:19.961Z,101154.34
2019-05-30T07:23:58.259Z,101151.73
2019-05-30T07:24:35.580Z,101154.57
2019-05-30T07:25:12.964Z,101152.56
2019-05-30T07:25:49.629Z,101151.15
2019-05-30T07:26:27.710Z,101152.77
2019-05-30T07:27:05.132Z,101147.10
2019-05-30T07:27:41.899Z,101143.47
2019-05-30T07:28:19.163Z,101147.10
2019-05-30T07:29:00.371Z,101144.27
2019-05-30T07:29:35.110Z,101143.91
2019-05-30T07:30:12.365Z,101140.02
2019-05-30T07:30:49.721Z,101140.45
2019-05-30T07:31:26.416Z,101139.03
2019-05-30T07:32:04.759Z,101137.62
2019-05-30T07:32:42.441Z,101141.27
2019-05-30T07:33:19.143Z,101131.95
2019-05-30T07:33:56.379Z,101126.91
2019-05-30T07:34:34.266Z,101130.77
2019-05-30T07:35:11.088Z,101137.27
2019-05-30T07:35:48.423Z,101122.27
2019-05-30T07:36:26.111Z,101125.10
2019-05-30T07:37:03.156Z,101125.92
2019-05-30T07:37:40.815Z,101129.12
2019-05-30T07:38:18.214Z,101124.51
2019-05-30T07:38:55.001Z,101128.77
2019-05-30T07:39:35.081Z,101121.67
2019-05-30T07:40:11.929Z,101117.42
2019-05-30T07:40:48.644Z,101127.11
2019-05-30T07:41:26.796Z,101124.51
2019-05-30T07:42:06.629Z,101122.47
2019-05-30T07:42:42.755Z,101118.22
2019-05-30T07:43:20.058Z,101126.72
2019-05-30T07:43:57.383Z,101116.21
2019-05-30T07:44:34.972Z,101125.53
2019-05-30T07:45:12.887Z,101120.46
2019-05-30T07:45:58.051Z,101124.35
2019-05-30T07:46:29.238Z,101123.30
2019-05-30T07:47:06.592Z,101118.22
2019-05-30T07:47:44.201Z,101122.94
2019-05-30T07:48:20.891Z,101128.37
2019-05-30T07:48:59.112Z,101130.02
2019-05-30T07:49:36.422Z,101127.19
2019-05-30T07:50:13.599Z,101123.97
2019-05-30T07:50:51.142Z,101131.05
2019-05-30T07:51:28.510Z,101129.03
2019-05-30T07:52:05.367Z,101127.00
2019-05-30T07:52:42.633Z,101124.98
2019-05-30T07:53:19.886Z,101129.47
2019-05-30T07:53:56.617Z,101122.39
2019-05-30T07:54:35.151Z,101123.19
2019-05-30T07:55:12.571Z,101125.42
2019-05-30T07:55:49.260Z,101124.83
2019-05-30T07:56:26.915Z,101131.32
2019-05-30T07:57:04.272Z,101124.23
2019-05-30T07:57:41.814Z,101123.61
2019-05-30T07:58:19.407Z,101121.02
2019-05-30T07:58:57.779Z,101125.27
2019-05-30T07:59:34.823Z,101129.13
2019-05-30T08:00:16.116Z,101121.25
2019-05-30T08:00:53.391Z,101117.79
2019-05-30T08:01:30.500Z,101124.67
2019-05-30T08:02:07.792Z,101134.80
2019-05-30T08:02:45.209Z,101121.69
2019-05-30T08:03:22.273Z,101125.94
2019-05-30T08:03:59.676Z,101130.98
2019-05-30T08:04:37.813Z,101127.55
2019-05-30T08:05:24.072Z,101132.83
2019-05-30T08:05:53.634Z,101130.62
2019-05-30T08:06:31.531Z,101124.72
2019-05-30T08:07:08.378Z,101134.25
2019-05-30T08:07:46.038Z,101126.56
2019-05-30T08:08:23.326Z,101133.06
2019-05-30T08:08:59.958Z,101130.46
2019-05-30T08:09:37.305Z,101133.30
2019-05-30T08:10:14.720Z,101132.11
2019-05-30T08:10:51.371Z,101133.53
2019-05-30T08:11:28.818Z,101137.19
2019-05-30T08:12:06.072Z,101135.97
2019-05-30T08:12:42.775Z,101134.55
2019-05-30T08:13:20.133Z,101134.19
2019-05-30T08:13:57.371Z,101129.94
2019-05-30T08:14:35.217Z,101134.78
2019-05-30T08:15:12.741Z,101132.98
2019-05-30T08:15:50.213Z,101136.41
2019-05-30T08:16:27.213Z,101130.38
2019-05-30T08:17:05.554Z,101132.38
2019-05-30T08:17:44.463Z,101130.97
2019-05-30T08:18:21.509Z,101137.66
2019-05-30T08:18:58.864Z,101140.49
2019-05-30T08:19:36.122Z,101133.41
2019-05-30T08:20:13.073Z,101136.47
2019-05-30T08:20:50.331Z,101142.34
2019-05-30T08:21:27.839Z,101140.93
2019-05-30T08:22:04.622Z,101134.90
2019-05-30T08:22:41.981Z,101136.31
2019-05-30T08:23:19.256Z,101135.09
2019-05-30T08:23:55.927Z,101133.68
2019-05-30T08:24:34.491Z,101133.91
2019-05-30T08:25:12.083Z,101131.91
2019-05-30T08:25:49.816Z,101132.70
2019-05-30T08:26:28.084Z,101128.25
2019-05-30T08:27:05.398Z,101132.11
2019-05-30T08:27:42.200Z,101129.06
2019-05-30T08:28:19.487Z,101130.69
2019-05-30T08:28:56.908Z,101135.97
2019-05-30T08:29:34.403Z,101125.84
2019-05-30T08:30:13.336Z,101130.69
2019-05-30T08:30:51.473Z,101123.60
2019-05-30T08:31:28.617Z,101134.55
2019-05-30T08:32:05.987Z,101132.34
2019-05-30T08:32:44.255Z,101132.34
2019-05-30T08:33:21.784Z,101138.80
2019-05-30T08:33:59.206Z,101133.13
2019-05-30T08:34:36.706Z,101130.30
2019-05-30T08:35:13.584Z,101129.50
2019-05-30T08:35:50.841Z,101135.97
2019-05-30T08:36:28.745Z,101131.13
2019-05-30T08:37:05.442Z,101133.36
2019-05-30T08:37:42.783Z,101132.14
2019-05-30T08:38:20.061Z,101130.73
2019-05-30T08:38:56.848Z,101135.21
2019-05-30T08:39:35.161Z,101135.80
2019-05-30T08:40:12.851Z,101141.47
2019-05-30T08:40:49.613Z,101136.62
2019-05-30T08:41:26.864Z,101139.47
2019-05-30T08:42:04.207Z,101138.25
2019-05-30T08:42:41.013Z,101138.87
2019-05-30T08:43:18.269Z,101142.50
2019-05-30T08:43:55.684Z,101139.07
2019-05-30T08:44:32.349Z,101134.22
2019-05-30T08:45:10.269Z,101135.64
2019-05-30T08:45:47.853Z,101131.39
2019-05-30T08:46:24.716Z,101135.41
2019-05-30T08:47:02.113Z,101134.81
2019-05-30T08:47:40.727Z,101129.15
2019-05-30T08:48:17.529Z,101133.04
2019-05-30T08:48:54.802Z,101130.20
2019-05-30T08:49:32.173Z,101134.45
2019-05-30T08:50:09.029Z,101136.08
2019-05-30T08:50:46.354Z,101134.27
2019-05-30T08:51:23.680Z,101132.84
2019-05-30T08:52:00.457Z,101131.66
2019-05-30T08:52:38.623Z,101137.53
2019-05-30T08:53:16.083Z,101135.52
2019-05-30T08:53:52.786Z,101136.73
2019-05-30T08:54:30.335Z,101136.11
2019-05-30T08:55:07.883Z,101136.94
2019-05-30T08:55:44.705Z,101139.19
2019-05-30T08:56:22.049Z,101131.50
2019-05-30T08:56:59.292Z,101135.16
2019-05-30T08:57:36.616Z,101129.26
2019-05-30T08:58:14.131Z,101132.92
2019-05-30T08:58:51.382Z,101135.95
2019-05-30T08:59:28.080Z,101129.48
2019-05-30T09:00:09.055Z,101125.23
2019-05-30T09:00:46.379Z,101127.45
2019-05-30T09:01:23.167Z,101133.52
2019-05-30T09:02:00.527Z,101132.33
2019-05-30T09:02:38.814Z,101131.70
2019-05-30T09:03:15.819Z,101126.27
2019-05-30T09:03:53.402Z,101127.67
2019-05-30T09:04:31.076Z,101122.20
2019-05-30T09:05:08.105Z,101130.12
2019-05-30T09:06:00.924Z,101124.69
2019-05-30T09:06:24.534Z,101127.52
2019-05-30T09:07:01.327Z,101135.63
2019-05-30T09:07:40.054Z,101123.46
2019-05-30T09:08:17.798Z,101122.27
2019-05-30T09:08:54.596Z,101130.55
2019-05-30T09:09:31.955Z,101127.12
2019-05-30T09:10:09.759Z,101124.52
2019-05-30T09:10:46.609Z,101130.78
2019-05-30T09:11:23.856Z,101131.80
2019-05-30T09:12:01.361Z,101126.37
2019-05-30T09:12:40.089Z,101125.54
2019-05-30T09:13:17.282Z,101125.74
2019-05-30T09:13:54.553Z,101133.66
2019-05-30T09:14:32.231Z,101124.33
2019-05-30T09:15:12.707Z,101118.06
2019-05-30T09:15:50.102Z,101127.00
2019-05-30T09:16:26.965Z,101124.33
2019-05-30T09:17:04.747Z,101125.37
2019-05-30T09:17:42.670Z,101128.41
2019-05-30T09:18:19.762Z,101123.34
2019-05-30T09:18:57.037Z,101124.98
2019-05-30T09:19:34.277Z,101127.42
2019-05-30T09:20:11.204Z,101124.59
2019-05-30T09:20:48.502Z,101121.39
2019-05-30T09:21:25.982Z,101129.08
2019-05-30T09:22:02.970Z,101112.06
2019-05-30T09:22:41.543Z,101124.83
2019-05-30T09:23:19.264Z,101121.00
2019-05-30T09:24:00.843Z,101120.41
2019-05-30T09:24:35.122Z,101118.98
2019-05-30T09:25:13.018Z,101130.53
2019-05-30T09:25:49.865Z,101117.77
2019-05-30T09:26:27.131Z,101120.01
2019-05-30T09:27:04.376Z,101124.47
2019-05-30T09:27:42.682Z,101121.03
2019-05-30T09:28:20.186Z,101123.05
2019-05-30T09:28:57.413Z,101111.70
2019-05-30T09:29:34.221Z,101118.42
2019-05-30T09:30:13.239Z,101117.83
2019-05-30T09:30:50.923Z,101121.46
2019-05-30T09:31:27.700Z,101122.88
2019-05-30T09:32:05.054Z,101114.60
2019-05-30T09:32:43.192Z,101119.05
2019-05-30T09:33:20.263Z,101124.13
2019-05-30T09:33:57.600Z,101114.20
2019-05-30T09:34:36.919Z,101110.78
2019-05-30T09:35:15.499Z,101115.85
2019-05-30T09:35:52.807Z,101113.61
2019-05-30T09:36:30.048Z,101117.27
2019-05-30T09:37:06.807Z,101114.04
2019-05-30T09:37:46.017Z,101125.39
2019-05-30T09:38:23.735Z,101125.62
2019-05-30T09:39:00.836Z,101112.23
2019-05-30T09:39:41.249Z,101116.28
2019-05-30T09:40:20.422Z,101119.95
2019-05-30T09:40:57.179Z,101114.27
2019-05-30T09:41:34.506Z,101113.05
2019-05-30T09:42:11.891Z,101113.64
2019-05-30T09:42:50.208Z,101116.71
2019-05-30T09:43:27.617Z,101116.34
2019-05-30T09:44:05.058Z,101113.52
2019-05-30T09:44:42.248Z,101117.17
2019-05-30T09:45:19.797Z,101122.25
2019-05-30T09:45:57.120Z,101108.86
2019-05-30T09:46:33.876Z,101113.34
2019-05-30T09:47:11.259Z,101117.60
2019-05-30T09:47:49.399Z,101114.17
2019-05-30T09:48:26.408Z,101119.22
2019-05-30T09:49:03.804Z,101114.17
2019-05-30T09:49:41.847Z,101119.45
2019-05-30T09:50:19.475Z,101118.03
2019-05-30T09:50:56.800Z,101123.11
2019-05-30T09:51:34.240Z,101118.03
2019-05-30T09:52:11.002Z,101114.80
2019-05-30T09:52:49.384Z,101118.27
2019-05-30T09:53:27.770Z,101115.42
2019-05-30T09:54:04.627Z,101120.47
2019-05-30T09:54:43.010Z,101121.89
2019-05-30T09:55:21.127Z,101126.38
2019-05-30T09:55:58.052Z,101127.56
2019-05-30T09:56:35.447Z,101122.95
2019-05-30T09:57:12.722Z,101122.31
2019-05-30T09:57:49.679Z,101127.63
2019-05-30T09:58:28.003Z,101122.55
2019-05-30T09:59:05.290Z,101127.00
2019-05-30T09:59:43.568Z,101121.95
2019-05-30T10:00:22.655Z,101126.41
2019-05-30T10:01:01.456Z,101126.21
2019-05-30T10:01:38.239Z,101119.91
2019-05-30T10:02:15.483Z,101119.31
2019-05-30T10:02:52.810Z,101123.20
2019-05-30T10:03:29.571Z,101120.96
2019-05-30T10:04:06.805Z,101120.37
2019-05-30T10:04:45.759Z,101127.66
2019-05-30T10:05:24.974Z,101115.72
2019-05-30T10:06:02.528Z,101118.55
2019-05-30T10:06:39.900Z,101110.63
2019-05-30T10:07:16.640Z,101113.47
2019-05-30T10:07:53.967Z,101115.13
2019-05-30T10:08:32.236Z,101108.45
2019-05-30T10:09:10.020Z,101113.50
2019-05-30T10:09:47.297Z,101110.07
2019-05-30T10:10:24.633Z,101105.22
2019-05-30T10:11:01.411Z,101107.23
2019-05-30T10:11:38.683Z,101102.38
2019-05-30T10:12:15.929Z,101101.19
2019-05-30T10:12:52.845Z,101104.03
2019-05-30T10:13:31.447Z,101099.15
2019-05-30T10:14:09.031Z,101100.56
2019-05-30T10:14:46.909Z,101104.83
2019-05-30T10:15:24.212Z,101102.22
2019-05-30T10:16:01.638Z,101101.62
2019-05-30T10:16:38.409Z,101103.83
2019-05-30T10:17:15.805Z,101095.31
2019-05-30T10:17:54.501Z,101101.22
2019-05-30T10:18:31.453Z,101096.14
2019-05-30T10:19:08.823Z,101098.98
2019-05-30T10:19:47.144Z,101095.97
2019-05-30T10:20:23.900Z,101095.97
2019-05-30T10:21:01.194Z,101102.24
2019-05-30T10:21:38.572Z,101107.33
2019-05-30T10:22:15.738Z,101104.48
2019-05-30T10:22:53.913Z,101101.84
2019-05-30T10:23:31.418Z,101103.27
2019-05-30T10:24:08.176Z,101106.33
2019-05-30T10:24:46.266Z,101115.67
2019-05-30T10:25:24.693Z,101108.58
2019-05-30T10:26:01.741Z,101103.72
2019-05-30T10:26:39.421Z,101108.77
2019-05-30T10:27:16.976Z,101105.34
2019-05-30T10:27:54.788Z,101101.08
2019-05-30T10:28:32.306Z,101105.34
2019-05-30T10:29:09.582Z,101111.24
2019-05-30T10:29:47.658Z,101112.27
2019-05-30T10:30:25.243Z,101103.75
2019-05-30T10:31:02.898Z,101102.92
2019-05-30T10:31:39.556Z,101105.99
2019-05-30T10:32:16.929Z,101099.48
2019-05-30T10:32:55.740Z,101098.27
2019-05-30T10:33:32.623Z,101099.09
2019-05-30T10:34:09.996Z,101098.27
2019-05-30T10:34:47.935Z,101101.34
2019-05-30T10:35:25.042Z,101104.41
2019-05-30T10:36:02.528Z,101097.91
2019-05-30T10:36:44.233Z,101101.56
2019-05-30T10:37:18.268Z,101101.56
2019-05-30T10:37:56.833Z,101101.56
2019-05-30T10:38:34.178Z,101099.75
2019-05-30T10:39:11.039Z,101101.98
2019-05-30T10:39:49.192Z,101101.98
2019-05-30T10:40:26.743Z,101097.11
2019-05-30T10:41:03.551Z,101102.19
2019-05-30T10:41:40.804Z,101100.77
2019-05-30T10:42:18.060Z,101097.33
2019-05-30T10:42:55.199Z,101101.59
2019-05-30T10:43:33.901Z,101095.31
2019-05-30T10:44:11.181Z,101096.11
2019-05-30T10:44:49.397Z,101096.94
2019-05-30T10:45:28.873Z,101093.50
2019-05-30T10:46:06.241Z,101093.50
2019-05-30T10:46:43.024Z,101089.84
2019-05-30T10:47:20.287Z,101090.44
2019-05-30T10:47:57.784Z,101093.10
2019-05-30T10:48:34.653Z,101088.84
2019-05-30T10:49:12.206Z,101088.25
2019-05-30T10:49:49.894Z,101086.83
2019-05-30T10:50:26.605Z,101091.91
2019-05-30T10:51:03.951Z,101086.43
2019-05-30T10:51:41.199Z,101081.58
2019-05-30T10:52:17.987Z,101083.59
2019-05-30T10:52:57.361Z,101083.22
2019-05-30T10:53:37.448Z,101082.41
2019-05-30T10:54:13.128Z,101090.91
2019-05-30T10:54:51.499Z,101085.23
2019-05-30T10:55:28.811Z,101084.02
2019-05-30T10:56:05.688Z,101091.94
2019-05-30T10:56:42.906Z,101084.84
2019-05-30T10:57:20.579Z,101088.50
2019-05-30T10:57:59.563Z,101086.48
2019-05-30T10:58:36.722Z,101083.64
2019-05-30T10:59:14.084Z,101089.33
2019-05-30T10:59:50.937Z,101088.73
2019-05-30T11:00:53.754Z,101083.64
2019-05-30T11:01:31.577Z,101088.10
2019-05-30T11:02:10.260Z,101094.69
2019-05-30T11:02:49.258Z,101089.47
2019-05-30T11:03:27.499Z,101089.89
2019-05-30T11:04:04.868Z,101086.23
2019-05-30T11:04:42.165Z,101086.66
2019-05-30T11:05:18.891Z,101090.32
2019-05-30T11:06:05.635Z,101091.11
2019-05-30T11:07:01.262Z,101088.90
2019-05-30T11:07:33.950Z,101086.43
2019-05-30T11:08:15.572Z,101084.81
2019-05-30T11:08:53.219Z,101090.66
2019-05-30T11:09:33.051Z,101085.58
2019-05-30T11:10:15.445Z,101079.54
2019-05-30T11:10:52.861Z,101082.74
2019-05-30T11:11:29.552Z,101078.48
2019-05-30T11:12:07.104Z,101080.95
2019-05-30T11:12:44.548Z,101081.98
2019-05-30T11:13:21.345Z,101078.91
2019-05-30T11:13:58.680Z,101083.59
2019-05-30T11:14:36.381Z,101077.31
2019-05-30T11:15:13.354Z,101080.75
2019-05-30T11:15:51.651Z,101075.08
2019-05-30T11:16:29.183Z,101077.31
2019-05-30T11:17:06.116Z,101076.50
2019-05-30T11:17:43.406Z,101075.70
2019-05-30T11:18:20.724Z,101077.31
2019-05-30T11:18:58.017Z,101075.30
2019-05-30T11:19:36.966Z,101081.58
2019-05-30T11:20:14.354Z,101079.56
2019-05-30T11:20:52.348Z,101081.58
2019-05-30T11:21:30.637Z,101086.43
2019-05-30T11:22:07.994Z,101083.82
2019-05-30T11:22:44.922Z,101086.06
2019-05-30T11:23:22.292Z,101078.97
2019-05-30T11:23:59.955Z,101085.44
2019-05-30T11:24:36.802Z,101085.44
2019-05-30T11:25:14.176Z,101089.70
2019-05-30T11:25:52.575Z,101084.02
2019-05-30T11:26:29.292Z,101087.08
2019-05-30T11:27:06.754Z,101085.44
2019-05-30T11:27:44.647Z,101086.48
2019-05-30T11:28:21.662Z,101085.06
2019-05-30T11:28:58.942Z,101088.50
2019-05-30T11:29:36.201Z,101083.05
2019-05-30T11:30:14.343Z,101083.05
2019-05-30T11:30:52.749Z,101078.80
2019-05-30T11:31:30.138Z,101081.00
2019-05-30T11:32:07.200Z,101080.21
2019-05-30T11:32:44.569Z,101082.42
2019-05-30T11:33:21.823Z,101075.95
2019-05-30T11:33:59.221Z,101085.27
2019-05-30T11:34:37.471Z,101081.83
2019-05-30T11:35:14.750Z,101081.83
2019-05-30T11:35:51.628Z,101081.23
2019-05-30T11:36:29.341Z,101082.66
2019-05-30T11:37:18.700Z,101084.27
2019-05-30T11:37:46.254Z,101088.33
2019-05-30T11:38:23.639Z,101082.66
2019-05-30T11:39:00.997Z,101080.23
2019-05-30T11:39:39.259Z,101085.09
2019-05-30T11:40:16.774Z,101076.97
2019-05-30T11:40:55.520Z,101079.41
2019-05-30T11:41:32.327Z,101079.64
2019-05-30T11:42:09.628Z,101083.90
2019-05-30T11:42:46.992Z,101080.44
2019-05-30T11:43:23.777Z,101087.53
2019-05-30T11:44:04.146Z,101084.69
2019-05-30T11:44:40.253Z,101079.84
2019-05-30T11:45:17.732Z,101085.32
2019-05-30T11:45:56.000Z,101084.09
2019-05-30T11:46:33.340Z,101085.52
2019-05-30T11:47:10.094Z,101085.52
2019-05-30T11:47:47.361Z,101084.33
2019-05-30T11:48:24.609Z,101082.08
2019-05-30T11:49:01.377Z,101089.38
2019-05-30T11:49:38.766Z,101082.91
2019-05-30T11:50:16.003Z,101086.53
2019-05-30T11:50:53.722Z,101089.60
2019-05-30T11:51:31.141Z,101085.94
2019-05-30T11:52:08.492Z,101086.77
2019-05-30T11:52:45.187Z,101083.52
2019-05-30T11:53:22.593Z,101091.08
2019-05-30T11:54:01.042Z,101089.88
2019-05-30T11:54:37.831Z,101085.03
2019-05-30T11:55:15.191Z,101089.28
2019-05-30T11:55:52.580Z,101088.66
2019-05-30T11:56:29.240Z,101089.48
2019-05-30T11:57:06.602Z,101083.20
2019-05-30T11:57:43.924Z,101082.61
2019-05-30T11:58:21.670Z,101083.63
2019-05-30T11:59:00.128Z,101089.91
2019-05-30T11:59:37.503Z,101087.89
2019-05-30T12:00:14.260Z,101079.97
2019-05-30T12:00:53.011Z,101085.27
2019-05-30T12:01:30.823Z,101084.65
2019-05-30T12:02:07.914Z,101082.44
2019-05-30T12:02:45.307Z,101083.86
2019-05-30T12:03:22.663Z,101078.97
2019-05-30T12:04:00.692Z,101084.05
2019-05-30T12:04:39.406Z,101082.44
2019-05-30T12:05:16.748Z,101078.77
2019-05-30T12:05:55.168Z,101080.61
2019-05-30T12:06:32.616Z,101082.86
2019-05-30T12:07:10.387Z,101079.80
2019-05-30T12:07:47.071Z,101082.04
2019-05-30T12:08:24.435Z,101083.45
2019-05-30T12:09:01.790Z,101082.23
2019-05-30T12:09:39.520Z,101075.95
2019-05-30T12:10:17.076Z,101075.95
2019-05-30T12:10:57.173Z,101071.70
2019-05-30T12:11:34.192Z,101075.95
2019-05-30T12:12:11.523Z,101078.38
2019-05-30T12:12:48.787Z,101079.20
2019-05-30T12:13:25.473Z,101080.44
2019-05-30T12:14:02.806Z,101070.50
2019-05-30T12:14:40.248Z,101071.92
2019-05-30T12:15:17.629Z,101073.53
2019-05-30T12:15:55.460Z,101069.91
2019-05-30T12:16:32.854Z,101071.33
2019-05-30T12:17:09.589Z,101076.38
2019-05-30T12:17:47.057Z,101072.12
2019-05-30T12:18:24.424Z,101070.10
2019-05-30T12:19:01.886Z,101072.75
2019-05-30T12:19:39.479Z,101071.92
2019-05-30T12:20:19.123Z,101068.48
2019-05-30T12:20:55.794Z,101076.55
2019-05-30T12:21:33.028Z,101074.77
2019-05-30T12:22:10.440Z,101068.48
2019-05-30T12:22:47.267Z,101071.33
2019-05-30T12:23:24.747Z,101071.92
2019-05-30T12:24:02.745Z,101075.36
2019-05-30T12:24:40.595Z,101072.75
2019-05-30T12:25:17.959Z,101074.77
2019-05-30T12:25:55.964Z,101067.66
2019-05-30T12:26:34.001Z,101073.94
2019-05-30T12:27:11.584Z,101077.37
2019-05-30T12:27:48.939Z,101072.92
2019-05-30T12:28:26.015Z,101077.97
2019-05-30T12:29:03.575Z,101073.71
2019-05-30T12:29:40.958Z,101077.97
2019-05-30T12:30:17.736Z,101078.80
2019-05-30T12:30:59.935Z,101077.37
2019-05-30T12:31:34.027Z,101080.81
2019-05-30T12:32:11.188Z,101077.18
2019-05-30T12:32:48.564Z,101072.92
2019-05-30T12:33:26.048Z,101075.77
2019-05-30T12:34:02.860Z,101077.18
2019-05-30T12:34:40.257Z,101074.34
2019-05-30T12:35:17.638Z,101076.55
2019-05-30T12:35:54.443Z,101072.30
2019-05-30T12:36:31.795Z,101073.71
2019-05-30T12:37:09.379Z,101072.30
2019-05-30T12:37:54.814Z,101082.86
2019-05-30T12:38:25.495Z,101072.69
2019-05-30T12:39:02.885Z,101069.03
2019-05-30T12:39:40.774Z,101073.29
2019-05-30T12:40:18.135Z,101071.88
2019-05-30T12:40:56.650Z,101071.27
2019-05-30T12:41:33.575Z,101063.98
2019-05-30T12:42:11.147Z,101073.29
2019-05-30T12:42:48.515Z,101071.27
2019-05-30T12:43:26.268Z,101064.17
2019-05-30T12:44:03.651Z,101067.02
2019-05-30T12:44:41.042Z,101069.66
2019-05-30T12:45:17.847Z,101067.84
2019-05-30T12:45:55.301Z,101062.98
2019-05-30T12:46:33.677Z,101067.61
2019-05-30T12:47:10.464Z,101069.03
2019-05-30T12:47:47.793Z,101066.19
2019-05-30T12:48:25.024Z,101064.77
2019-05-30T12:49:01.751Z,101064.17
2019-05-30T12:49:39.059Z,101069.26
2019-05-30T12:50:16.942Z,101067.24
2019-05-30T12:50:55.127Z,101063.58
2019-05-30T12:51:33.542Z,101066.42
2019-05-30T12:52:10.968Z,101061.34
2019-05-30T12:52:47.768Z,101055.66
2019-05-30T12:53:25.039Z,101058.72
2019-05-30T12:54:02.744Z,101058.72
2019-05-30T12:54:39.801Z,101059.52
2019-05-30T12:55:17.360Z,101057.08
2019-05-30T12:55:54.912Z,101062.35
2019-05-30T12:56:31.694Z,101064.00
2019-05-30T12:57:08.966Z,101057.50
2019-05-30T12:57:46.294Z,101060.34
2019-05-30T12:58:23.052Z,101056.91
2019-05-30T12:59:01.157Z,101061.16
2019-05-30T12:59:38.549Z,101052.64
2019-05-30T13:00:20.975Z,101056.30
2019-05-30T13:00:58.753Z,101061.16
2019-05-30T13:01:36.202Z,101056.91
2019-05-30T13:02:13.172Z,101059.73
2019-05-30T13:02:50.523Z,101059.14
2019-05-30T13:03:28.868Z,101062.18
2019-05-30T13:04:05.531Z,101057.13
2019-05-30T13:04:42.894Z,101059.34
2019-05-30T13:05:20.244Z,101054.48
2019-05-30T13:05:57.114Z,101050.22
2019-05-30T13:06:34.536Z,101052.23
2019-05-30T13:07:11.828Z,101053.06
2019-05-30T13:07:48.999Z,101052.47
2019-05-30T13:08:26.671Z,101053.06
2019-05-30T13:09:04.887Z,101049.03
2019-05-30T13:09:41.744Z,101047.20
2019-05-30T13:10:20.811Z,101046.19
2019-05-30T13:10:59.422Z,101047.80
2019-05-30T13:11:38.842Z,101049.82
2019-05-30T13:12:16.162Z,101040.52
2019-05-30T13:12:53.606Z,101045.36
2019-05-30T13:13:30.376Z,101049.82
2019-05-30T13:14:07.800Z,101047.61
2019-05-30T13:14:45.059Z,101045.56
2019-05-30T13:15:21.734Z,101048.40
2019-05-30T13:15:59.205Z,101052.06
2019-05-30T13:16:36.976Z,101050.05
2019-05-30T13:17:13.752Z,101050.05
2019-05-30T13:17:51.114Z,101048.62
2019-05-30T13:18:28.502Z,101053.71
2019-05-30T13:19:06.370Z,101046.61
2019-05-30T13:19:43.715Z,101056.55
2019-05-30T13:20:21.139Z,101046.61
2019-05-30T13:20:58.523Z,101051.47
2019-05-30T13:21:35.890Z,101052.29
2019-05-30T13:22:13.182Z,101048.03
2019-05-30T13:22:49.836Z,101042.34
2019-05-30T13:23:27.174Z,101041.72